Ogilvie, Minnesota
Current Conditions -  °F | °C
As of 11:25 PM on Monday 26 Jan 2015 (Local Time) from KJMR Reporting Station
Overcast Overcast  
Wind Chill: -3°   Ceiling: 2300
Heat Index:   Visibility: 10mi
Dew Point: -4°   Wind: 5mph
Humidity: 75%   Direction: 340°NNW
Pressure: 30"   Gusts: NA
Location:  45.83°N, 93.43°W
Report Text: KJMR 270525Z AUTO 34004KT 10SM OVC023 00/M04 A3000 RMK AO2
Loading
Personal Weather Stations






























Interactive Weather Map New forecast layout! Learn more

10-Day Weather Forecast

Advertisements
Track Severe Weather on mobile